Time;durP1;ratioP1;P1;durP2;ratioP2;P2;SDS_P1;SDS_P2;PMS_P1;PMS_P2;Temp;Humidity;BMP_temperature;BMP_pressure;BME280_temperature;BME280_humidity;BME280_pressure;Samples;Min_cycle;Max_cycle;Signal;HPM_P1;HPM_P2
2021/04/24 00:00:39;;;;;;;11.13;6.30;;;4.20;49.00;;;;;;5089119;28;20472;-88
2021/04/24 00:06:03;;;;;;;12.07;5.50;;;4.30;49.10;;;;;;5090069;28;20443;-87
2021/04/24 00:08:39;;;;;;;6.30;5.07;;;4.20;49.30;;;;;;5094290;28;20464;-87
2021/04/24 00:11:12;;;;;;;7.33;4.77;;;4.10;49.50;;;;;;5093660;28;20458;-86
2021/04/24 00:13:48;;;;;;;7.87;4.93;;;4.10;50.00;;;;;;5082350;28;20450;-87
2021/04/24 00:16:23;;;;;;;9.53;4.77;;;4.20;50.10;;;;;;5086264;28;20962;-87
2021/04/24 00:19:01;;;;;;;9.97;5.50;;;4.00;50.20;;;;;;5071620;28;20440;-87
2021/04/24 00:21:38;;;;;;;7.73;4.47;;;3.90;50.10;;;;;;5066430;28;20495;-87
2021/04/24 00:24:18;;;;;;;9.27;5.40;;;3.90;50.20;;;;;;5091327;28;20474;-88
2021/04/24 00:26:54;;;;;;;7.43;4.70;;;4.00;50.20;;;;;;5063877;28;20965;-87
2021/04/24 00:29:35;;;;;;;8.30;5.43;;;4.00;50.30;;;;;;5077363;28;20484;-85
2021/04/24 00:32:20;;;;;;;10.80;5.50;;;4.00;50.30;;;;;;5106646;28;20440;-88
2021/04/24 00:37:51;;;;;;;9.43;5.47;;;3.80;50.60;;;;;;5088946;28;20974;-88
2021/04/24 00:40:27;;;;;;;7.90;4.60;;;3.70;50.90;;;;;;5092408;28;20513;-88
2021/04/24 00:45:51;;;;;;;10.00;4.93;;;3.90;51.00;;;;;;5085237;28;20455;-89
2021/04/24 00:51:25;;;;;;;6.67;5.10;;;3.70;51.80;;;;;;5073235;28;20481;-88
2021/04/24 00:54:08;;;;;;;10.20;5.07;;;3.70;52.60;;;;;;5070517;28;20453;-88
2021/04/24 00:56:50;;;;;;;7.23;4.50;;;3.60;52.80;;;;;;5091501;28;20466;-88
2021/04/24 00:59:31;;;;;;;9.07;5.20;;;3.60;52.70;;;;;;5087721;28;20466;-87
2021/04/24 01:02:08;;;;;;;7.90;4.90;;;3.60;52.90;;;;;;5072072;28;20904;-88
2021/04/24 01:07:48;;;;;;;7.83;5.60;;;3.60;53.20;;;;;;5083387;28;20500;-88
2021/04/24 01:10:24;;;;;;;7.97;5.30;;;3.60;53.70;;;;;;5091163;28;20450;-89
2021/04/24 01:15:56;;;;;;;10.27;5.10;;;3.60;54.40;;;;;;5109627;28;20454;-88
2021/04/24 01:18:38;;;;;;;10.20;5.10;;;3.40;55.00;;;;;;5102078;28;20973;-88
2021/04/24 01:24:16;;;;;;;7.07;5.30;;;3.40;55.60;;;;;;5113377;28;20472;-88
2021/04/24 01:26:57;;;;;;;8.80;5.03;;;3.30;56.30;;;;;;5078178;28;20464;-88
2021/04/24 01:29:37;;;;;;;12.00;6.30;;;3.20;57.20;;;;;;5081564;28;20513;-89
2021/04/24 01:32:17;;;;;;;7.50;5.37;;;3.10;58.50;;;;;;5068467;28;20449;-89
2021/04/24 01:35:05;;;;;;;7.47;5.57;;;3.20;59.20;;;;;;5080631;28;20453;-89
2021/04/24 01:43:22;;;;;;;9.20;6.73;;;3.10;61.10;;;;;;5082572;28;20520;-88
2021/04/24 01:46:00;;;;;;;8.87;6.20;;;3.00;61.30;;;;;;5087215;28;20945;-89
2021/04/24 01:48:41;;;;;;;9.03;6.00;;;3.10;62.30;;;;;;5085657;28;20447;-89
2021/04/24 01:54:07;;;;;;;8.60;5.80;;;3.10;62.60;;;;;;5083071;28;20446;-89
2021/04/24 01:57:08;;;;;;;9.10;6.00;;;2.90;63.60;;;;;;5083013;28;20460;-88
2021/04/24 01:59:43;;;;;;;9.77;6.40;;;2.90;64.80;;;;;;5090459;28;20446;-88
2021/04/24 02:02:22;;;;;;;8.17;5.10;;;2.80;64.90;;;;;;5086512;28;20438;-89
2021/04/24 02:05:03;;;;;;;9.50;6.30;;;2.90;65.10;;;;;;5091312;28;20926;-88
2021/04/24 02:07:49;;;;;;;7.27;5.80;;;2.90;65.20;;;;;;5081854;28;20468;-88
2021/04/24 02:10:31;;;;;;;8.20;5.10;;;2.80;65.80;;;;;;5072378;28;20451;-89
2021/04/24 02:13:21;;;;;;;9.40;6.87;;;2.80;65.80;;;;;;5075209;28;20524;-89
2021/04/24 02:16:01;;;;;;;8.17;6.33;;;2.80;66.30;;;;;;5073391;28;21036;-89
2021/04/24 02:18:41;;;;;;;9.77;6.40;;;2.70;66.60;;;;;;5082301;28;20465;-88
2021/04/24 02:24:15;;;;;;;8.83;5.90;;;2.60;67.50;;;;;;5086879;28;20833;-89
2021/04/24 02:32:38;;;;;;;9.57;6.20;;;2.40;69.20;;;;;;5089113;28;20823;-88
2021/04/24 02:38:44;;;;;;;8.83;5.87;;;2.60;71.10;;;;;;5078217;27;20596;-87
2021/04/24 02:41:23;;;;;;;8.60;6.00;;;2.50;71.30;;;;;;5056331;28;20452;-87
2021/04/24 02:44:03;;;;;;;8.03;4.83;;;2.50;71.40;;;;;;5053718;28;20449;-88
2021/04/24 02:46:43;;;;;;;8.77;5.70;;;2.60;71.40;;;;;;5052013;28;21111;-87
2021/04/24 02:49:30;;;;;;;6.47;5.63;;;2.60;71.70;;;;;;5051917;28;20559;-87
2021/04/24 02:52:19;;;;;;;11.23;5.80;;;2.60;70.90;;;;;;5056800;28;20500;-88
2021/04/24 02:55:04;;;;;;;11.97;5.87;;;2.80;70.80;;;;;;5058898;28;20450;-88
2021/04/24 02:57:40;;;;;;;6.77;5.87;;;2.80;70.80;;;;;;5056367;28;20461;-88
2021/04/24 03:00:23;;;;;;;8.23;5.90;;;2.60;70.30;;;;;;5070319;28;20459;-88
2021/04/24 03:03:18;;;;;;;5.73;5.13;;;2.70;69.90;;;;;;5065475;28;20861;-87
2021/04/24 03:08:40;;;;;;;9.97;6.70;;;2.50;70.40;;;;;;5059373;28;20443;-88
2021/04/24 03:11:13;;;;;;;9.80;5.30;;;2.50;70.50;;;;;;5059803;28;20602;-87
2021/04/24 03:13:51;;;;;;;11.13;6.57;;;2.50;70.10;;;;;;5064892;28;20457;-88
2021/04/24 03:16:29;;;;;;;8.83;5.93;;;2.60;70.20;;;;;;5064010;28;20466;-87
2021/04/24 03:19:12;;;;;;;14.77;6.40;;;2.50;70.00;;;;;;5055570;28;20459;-87
2021/04/24 03:21:48;;;;;;;11.70;6.07;;;2.50;70.70;;;;;;5053733;28;20493;-87
2021/04/24 03:24:29;;;;;;;17.17;6.70;;;2.50;70.50;;;;;;5055610;28;20467;-87
2021/04/24 03:30:11;;;;;;;11.50;6.10;;;2.30;71.30;;;;;;5048041;28;20466;-87
2021/04/24 03:32:52;;;;;;;9.17;5.93;;;2.30;71.40;;;;;;5051091;28;20462;-87
2021/04/24 03:35:32;;;;;;;9.70;6.23;;;2.30;70.50;;;;;;5052160;28;20461;-88
2021/04/24 03:38:07;;;;;;;10.93;5.60;;;2.30;71.00;;;;;;5047643;28;20487;-88
2021/04/24 03:40:46;;;;;;;11.43;6.23;;;2.40;71.40;;;;;;5050393;28;20453;-88
2021/04/24 03:43:27;;;;;;;10.83;6.53;;;2.50;71.60;;;;;;5066585;28;20447;-88
2021/04/24 03:46:00;;;;;;;10.90;5.40;;;2.40;70.80;;;;;;5069516;28;20462;-87
2021/04/24 03:48:35;;;;;;;12.27;5.43;;;2.50;70.90;;;;;;5052253;28;20455;-87
2021/04/24 03:51:07;;;;;;;12.90;6.57;;;2.30;71.20;;;;;;5042012;28;20453;-87
2021/04/24 03:53:44;;;;;;;14.57;7.13;;;2.10;71.30;;;;;;5039297;28;20462;-88
2021/04/24 03:56:19;;;;;;;15.50;6.30;;;2.20;71.90;;;;;;5038291;28;21024;-87
2021/04/24 03:59:02;;;;;;;12.03;5.97;;;2.20;72.10;;;;;;5020988;28;20455;-87
2021/04/24 04:01:37;;;;;;;11.60;6.40;;;2.20;71.80;;;;;;5035795;28;20531;-87
2021/04/24 04:09:45;;;;;;;14.70;6.30;;;2.10;72.70;;;;;;5037818;28;20456;-87
2021/04/24 04:12:20;;;;;;;14.43;6.20;;;2.10;72.40;;;;;;5037058;28;20452;-87
2021/04/24 04:17:48;;;;;;;16.20;6.90;;;2.30;72.80;;;;;;5038834;28;20510;-87
2021/04/24 04:20:28;;;;;;;16.00;6.80;;;2.40;72.50;;;;;;5037964;28;20451;-87
2021/04/24 04:23:05;;;;;;;11.07;7.30;;;2.30;72.60;;;;;;5039440;28;20488;-87
2021/04/24 04:25:46;;;;;;;10.37;6.63;;;2.30;73.40;;;;;;5038469;28;20456;-87
2021/04/24 04:28:28;;;;;;;10.47;6.00;;;2.90;72.80;;;;;;5039693;28;20464;-87
2021/04/24 04:31:09;;;;;;;12.20;6.60;;;3.60;70.40;;;;;;5042876;28;20470;-87
2021/04/24 04:33:52;;;;;;;11.70;6.77;;;4.30;69.00;;;;;;5048793;28;20465;-87
2021/04/24 04:36:31;;;;;;;7.30;5.13;;;4.60;65.60;;;;;;5041149;28;20596;-87
2021/04/24 04:42:04;;;;;;;8.70;5.30;;;5.30;62.80;;;;;;5046693;28;20953;-87
2021/04/24 04:44:39;;;;;;;9.53;5.33;;;5.60;62.30;;;;;;5041898;28;20454;-88
2021/04/24 04:50:14;;;;;;;7.83;5.80;;;6.20;60.20;;;;;;5038771;28;20460;-88
2021/04/24 04:53:02;;;;;;;7.40;4.93;;;5.70;60.60;;;;;;5035022;28;20454;-89
2021/04/24 04:55:39;;;;;;;10.37;5.53;;;5.60;61.30;;;;;;5040481;28;20484;-87
2021/04/24 04:58:11;;;;;;;10.23;5.63;;;6.50;61.00;;;;;;5038569;28;20889;-88
2021/04/24 05:00:46;;;;;;;6.77;4.83;;;7.00;59.40;;;;;;5038916;28;20808;-87
2021/04/24 05:06:19;;;;;;;7.87;5.40;;;9.10;55.20;;;;;;5042128;28;20458;-87
2021/04/24 05:09:00;;;;;;;6.20;5.03;;;9.00;54.00;;;;;;5034915;28;20955;-88
2021/04/24 05:11:42;;;;;;;9.27;5.80;;;6.60;53.10;;;;;;5027482;28;20543;-88
2021/04/24 05:14:23;;;;;;;9.83;5.30;;;7.80;55.70;;;;;;5059212;28;20574;-88
2021/04/24 05:17:03;;;;;;;6.63;5.83;;;7.60;54.40;;;;;;5036847;28;20475;-88
2021/04/24 05:19:50;;;;;;;7.20;5.20;;;7.50;54.00;;;;;;5036851;28;20447;-87
2021/04/24 05:22:30;;;;;;;5.70;5.00;;;7.20;55.10;;;;;;5037216;28;20445;-88
2021/04/24 05:25:07;;;;;;;9.93;5.37;;;7.80;54.30;;;;;;5043009;28;20451;-88
2021/04/24 05:30:37;;;;;;;15.17;5.50;;;9.40;51.50;;;;;;5040351;28;20532;-88
2021/04/24 05:33:27;;;;;;;5.30;4.80;;;8.60;49.90;;;;;;5037055;28;20477;-88
2021/04/24 05:36:29;;;;;;;8.90;5.70;;;9.00;51.20;;;;;;5038394;28;20494;-89
2021/04/24 05:39:09;;;;;;;8.80;5.57;;;7.40;51.40;;;;;;5035149;28;20470;-89
2021/04/24 05:41:50;;;;;;;7.87;5.43;;;8.20;52.70;;;;;;5038727;28;20462;-89
2021/04/24 05:44:30;;;;;;;7.80;5.40;;;9.30;52.40;;;;;;5037010;28;20485;-89
2021/04/24 05:47:10;;;;;;;8.07;5.40;;;9.60;51.40;;;;;;5035745;28;20466;-89
2021/04/24 05:52:37;;;;;;;8.10;5.47;;;6.90;50.70;;;;;;5055208;28;20463;-89
2021/04/24 05:55:19;;;;;;;10.83;6.20;;;6.30;53.10;;;;;;5034915;28;20456;-86
2021/04/24 05:58:07;;;;;;;8.97;6.10;;;5.80;53.90;;;;;;5036813;28;20519;-87
2021/04/24 06:00:48;;;;;;;12.07;5.50;;;5.50;54.50;;;;;;5035851;28;20457;-86
2021/04/24 06:03:24;;;;;;;8.60;5.77;;;5.90;55.50;;;;;;5041524;28;20465;-85
2021/04/24 06:05:58;;;;;;;9.80;5.47;;;5.70;54.80;;;;;;5037599;28;20503;-85
2021/04/24 06:08:34;;;;;;;7.47;5.10;;;5.10;55.10;;;;;;5035534;28;20456;-86
2021/04/24 06:11:09;;;;;;;6.47;5.80;;;5.20;55.40;;;;;;5036167;28;20520;-85
2021/04/24 06:13:44;;;;;;;8.97;5.90;;;5.70;55.90;;;;;;5030863;28;20819;-85
2021/04/24 06:16:20;;;;;;;9.40;5.97;;;6.00;55.40;;;;;;5032553;28;20560;-87
2021/04/24 06:19:01;;;;;;;6.13;5.20;;;6.40;55.20;;;;;;5031561;28;20460;-86
2021/04/24 06:21:36;;;;;;;8.20;5.30;;;5.80;54.20;;;;;;5033649;28;20452;-86
2021/04/24 06:24:20;;;;;;;8.83;4.83;;;6.10;55.00;;;;;;5040724;28;20477;-86
2021/04/24 06:26:55;;;;;;;6.27;5.30;;;5.80;54.60;;;;;;5049158;28;20446;-86
2021/04/24 06:29:30;;;;;;;6.20;4.80;;;5.80;55.00;;;;;;5057146;28;20446;-85
2021/04/24 06:32:15;;;;;;;11.70;5.70;;;6.40;55.10;;;;;;5047347;28;20463;-84
2021/04/24 06:38:03;;;;;;;6.90;5.30;;;7.20;54.40;;;;;;5051259;28;20504;-85
2021/04/24 06:46:53;;;;;;;9.30;5.40;;;6.50;53.70;;;;;;5044422;28;20460;-86
2021/04/24 06:49:45;;;;;;;9.80;6.20;;;7.10;54.20;;;;;;5042412;28;20458;-86
2021/04/24 06:52:22;;;;;;;6.93;6.20;;;7.30;54.00;;;;;;5046335;28;20495;-86
2021/04/24 06:58:33;;;;;;;11.57;5.60;;;7.80;53.60;;;;;;5039405;28;20832;-85
2021/04/24 07:01:16;;;;;;;7.80;5.33;;;7.50;53.30;;;;;;5043950;28;20469;-87
2021/04/24 07:03:51;;;;;;;9.07;5.07;;;7.60;53.00;;;;;;5039835;28;20453;-86
2021/04/24 07:06:35;;;;;;;8.23;5.10;;;8.00;52.90;;;;;;5036410;28;20500;-87
2021/04/24 07:12:08;;;;;;;8.00;5.63;;;8.50;51.90;;;;;;5041724;28;20506;-86
2021/04/24 07:14:56;;;;;;;7.63;5.67;;;8.70;51.80;;;;;;5034084;28;20462;-86
2021/04/24 07:17:34;;;;;;;9.40;5.20;;;8.80;51.70;;;;;;5035258;28;20490;-84
2021/04/24 07:23:07;;;;;;;8.07;5.73;;;9.20;51.20;;;;;;5042514;28;20554;-85
2021/04/24 07:25:54;;;;;;;7.97;5.47;;;9.20;51.10;;;;;;5052583;28;20517;-83
2021/04/24 07:28:33;;;;;;;11.03;4.97;;;9.40;51.00;;;;;;5051000;28;20446;-83
2021/04/24 07:31:22;;;;;;;8.30;5.90;;;9.70;50.00;;;;;;5038325;28;20451;-84
2021/04/24 07:34:03;;;;;;;8.73;5.37;;;9.90;49.50;;;;;;5048563;28;20455;-83
2021/04/24 07:39:57;;;;;;;12.93;5.13;;;10.10;48.30;;;;;;5054658;28;20443;-84
2021/04/24 07:42:43;;;;;;;9.13;5.70;;;10.40;48.30;;;;;;5061959;28;20463;-84
2021/04/24 07:45:25;;;;;;;7.20;5.63;;;10.70;47.80;;;;;;5049135;28;20515;-85
2021/04/24 07:48:14;;;;;;;8.97;5.63;;;11.00;47.40;;;;;;5051777;28;20450;-84
2021/04/24 07:53:46;;;;;;;9.50;5.00;;;11.30;46.50;;;;;;5042798;28;20454;-84
2021/04/24 07:56:26;;;;;;;7.23;4.63;;;11.50;45.60;;;;;;5049436;28;20462;-83
2021/04/24 08:01:45;;;;;;;7.60;5.50;;;11.10;45.40;;;;;;5043208;28;20937;-84
2021/04/24 08:04:27;;;;;;;8.90;5.40;;;11.20;45.00;;;;;;5046504;28;20443;-84
2021/04/24 08:07:07;;;;;;;7.73;5.50;;;11.00;44.80;;;;;;5046374;28;20454;-84
2021/04/24 08:09:45;;;;;;;11.50;5.00;;;11.30;44.70;;;;;;5045036;28;20848;-84
2021/04/24 08:15:23;;;;;;;7.13;4.40;;;11.90;43.80;;;;;;5044092;28;20447;-84
2021/04/24 08:17:56;;;;;;;7.67;4.50;;;12.30;43.50;;;;;;5046401;28;20546;-84
2021/04/24 08:21:00;;;;;;;11.20;5.47;;;12.50;43.50;;;;;;5049411;28;20478;-84
2021/04/24 08:23:34;;;;;;;7.50;5.07;;;12.00;43.20;;;;;;5050388;28;20482;-85
2021/04/24 08:26:10;;;;;;;8.13;5.30;;;12.20;43.60;;;;;;5048898;28;20477;-84
2021/04/24 08:28:54;;;;;;;7.43;4.67;;;12.40;43.40;;;;;;5040856;28;20447;-86
2021/04/24 08:31:30;;;;;;;6.77;4.97;;;12.50;43.50;;;;;;5047720;28;20545;-86
2021/04/24 08:34:06;;;;;;;7.45;5.70;;;12.70;43.10;;;;;;5038391;28;20485;-84
2021/04/24 08:36:42;;;;;;;7.13;5.30;;;12.50;43.90;;;;;;5048836;28;20253;-85
2021/04/24 08:39:16;;;;;;;6.00;5.10;;;12.60;44.20;;;;;;5048424;28;20455;-84
2021/04/24 08:41:58;;;;;;;6.60;5.20;;;12.50;44.00;;;;;;5050379;28;20445;-84
2021/04/24 08:44:33;;;;;;;5.70;4.53;;;12.40;43.10;;;;;;5047042;28;20522;-86
2021/04/24 08:47:11;;;;;;;10.37;4.60;;;12.40;42.70;;;;;;5047493;28;20438;-85
2021/04/24 08:49:55;;;;;;;4.53;3.60;;;12.40;42.40;;;;;;5043533;28;20466;-86
2021/04/24 08:52:31;;;;;;;5.70;4.50;;;12.50;41.50;;;;;;5046360;28;20454;-86
2021/04/24 08:55:06;;;;;;;4.47;4.07;;;12.70;41.90;;;;;;5037783;28;20979;-86
2021/04/24 08:57:42;;;;;;;5.20;3.70;;;12.90;42.10;;;;;;5037662;28;20894;-86
2021/04/24 09:00:24;;;;;;;8.77;3.17;;;13.20;41.40;;;;;;5037521;28;20460;-86
2021/04/24 09:05:48;;;;;;;6.00;4.20;;;13.20;40.30;;;;;;5038455;28;20466;-85
2021/04/24 09:08:47;;;;;;;7.70;4.40;;;13.30;41.20;;;;;;5044775;28;20472;-85
2021/04/24 09:11:47;;;;;;;3.93;3.50;;;13.50;40.50;;;;;;5044854;28;20981;-85
2021/04/24 09:17:12;;;;;;;8.93;3.97;;;13.40;39.60;;;;;;5044303;28;20530;-86
2021/04/24 09:20:36;;;;;;;7.73;4.30;;;13.10;39.60;;;;;;5045077;28;20455;-87
2021/04/24 09:23:44;;;;;;;6.53;4.00;;;13.80;40.10;;;;;;5056013;28;20515;-85
2021/04/24 09:26:29;;;;;;;4.93;3.40;;;14.10;40.10;;;;;;5058545;28;20455;-86
2021/04/24 09:29:16;;;;;;;6.57;4.50;;;13.80;40.40;;;;;;5047611;28;20466;-86
2021/04/24 09:32:17;;;;;;;8.77;4.40;;;13.90;40.10;;;;;;5050036;28;20471;-85
2021/04/24 09:34:55;;;;;;;6.83;4.50;;;14.20;40.30;;;;;;5056086;28;20447;-86
2021/04/24 09:37:32;;;;;;;6.80;4.27;;;14.00;39.40;;;;;;5039410;28;20506;-85
2021/04/24 09:40:28;;;;;;;8.90;4.70;;;13.80;39.00;;;;;;5041031;28;20447;-85
2021/04/24 09:43:06;;;;;;;8.23;4.60;;;13.90;39.00;;;;;;5047162;28;20455;-86
2021/04/24 09:45:45;;;;;;;8.37;5.27;;;13.90;39.30;;;;;;5039442;28;20494;-85
2021/04/24 09:48:27;;;;;;;6.17;4.90;;;13.90;39.20;;;;;;5037542;28;20474;-85
2021/04/24 09:54:15;;;;;;;6.53;4.57;;;14.10;39.10;;;;;;5040882;28;20446;-86
2021/04/24 09:57:01;;;;;;;5.03;4.50;;;13.90;37.90;;;;;;5077170;28;20894;-85
2021/04/24 09:59:53;;;;;;;7.73;5.23;;;14.10;38.40;;;;;;5045601;28;20455;-86
2021/04/24 10:02:37;;;;;;;7.37;4.50;;;14.20;38.40;;;;;;5043332;28;20530;-85
2021/04/24 10:05:20;;;;;;;7.37;5.10;;;14.30;38.30;;;;;;5049937;28;20459;-85
2021/04/24 10:07:56;;;;;;;6.40;5.00;;;14.20;38.40;;;;;;5057622;28;20442;-84
2021/04/24 10:10:42;;;;;;;9.37;4.43;;;14.00;38.10;;;;;;5062803;28;20540;-85
2021/04/24 10:17:05;;;;;;;8.23;4.60;;;14.40;37.60;;;;;;5045134;28;20489;-85
2021/04/24 10:19:41;;;;;;;7.73;4.53;;;14.30;37.20;;;;;;5046947;28;20511;-84
2021/04/24 10:22:19;;;;;;;7.37;4.63;;;14.40;37.30;;;;;;5046187;28;20476;-85
2021/04/24 10:30:50;;;;;;;6.67;4.40;;;14.40;36.80;;;;;;5048130;28;20443;-85
2021/04/24 10:33:28;;;;;;;7.87;4.50;;;14.60;36.80;;;;;;5047475;28;20452;-85
2021/04/24 10:36:39;;;;;;;17.53;5.77;;;14.70;36.80;;;;;;5045929;28;20458;-85
2021/04/24 10:39:21;;;;;;;6.00;4.70;;;15.10;36.70;;;;;;5039028;28;20463;-85
2021/04/24 10:45:11;;;;;;;6.80;4.30;;;14.90;35.30;;;;;;5037870;28;20477;-85
2021/04/24 10:47:58;;;;;;;5.07;3.83;;;14.80;35.20;;;;;;5047467;28;20451;-87
2021/04/24 10:51:09;;;;;;;5.20;4.67;;;14.70;35.10;;;;;;5040450;28;20451;-85
2021/04/24 11:03:02;;;;;;;8.00;4.80;;;14.80;35.10;;;;;;5057168;28;20451;-86
2021/04/24 11:05:48;;;;;;;4.90;3.93;;;14.80;34.80;;;;;;5076106;28;20458;-85
2021/04/24 11:11:54;;;;;;;6.23;4.37;;;15.20;35.00;;;;;;5048179;28;20477;-86
2021/04/24 11:14:34;;;;;;;7.10;4.67;;;15.10;35.80;;;;;;5043628;28;20893;-84
2021/04/24 11:20:05;;;;;;;8.30;4.93;;;15.10;34.40;;;;;;5046264;28;20519;-85
2021/04/24 11:25:39;;;;;;;7.37;4.17;;;15.30;34.70;;;;;;5047333;28;20990;-85
2021/04/24 11:28:24;;;;;;;7.33;4.87;;;15.00;34.90;;;;;;5042258;28;20459;-84
2021/04/24 11:31:42;;;;;;;12.27;4.40;;;15.10;34.70;;;;;;5051861;28;20528;-84
2021/04/24 11:34:40;;;;;;;5.83;4.40;;;15.50;34.70;;;;;;5043306;28;20506;-84
2021/04/24 11:37:51;;;;;;;6.57;4.10;;;15.50;34.30;;;;;;5045328;28;20503;-84
2021/04/24 11:40:35;;;;;;;9.20;5.80;;;15.50;33.80;;;;;;5046455;28;20461;-83
2021/04/24 11:43:14;;;;;;;8.13;4.67;;;15.40;34.50;;;;;;5054333;28;20486;-83
2021/04/24 11:46:10;;;;;;;5.67;3.70;;;15.20;33.50;;;;;;5050444;28;20456;-84
2021/04/24 11:49:15;;;;;;;5.00;4.30;;;15.50;31.50;;;;;;5054614;28;20451;-84
2021/04/24 11:51:55;;;;;;;7.53;5.70;;;15.70;33.60;;;;;;5050503;28;20485;-83
2021/04/24 11:54:39;;;;;;;6.90;5.90;;;15.70;34.80;;;;;;5045178;28;20457;-83
2021/04/24 11:57:36;;;;;;;8.70;5.47;;;15.90;35.30;;;;;;5045966;28;20546;-84
2021/04/24 12:00:30;;;;;;;5.17;4.27;;;15.90;35.10;;;;;;5050739;28;20460;-84
2021/04/24 12:03:18;;;;;;;7.20;4.70;;;15.70;32.40;;;;;;5048062;28;20532;-82
2021/04/24 12:05:54;;;;;;;8.93;4.83;;;15.30;32.80;;;;;;5051648;28;20477;-83
2021/04/24 12:11:29;;;;;;;5.00;4.23;;;16.10;33.10;;;;;;5050866;28;20439;-84
2021/04/24 12:17:00;;;;;;;4.00;3.57;;;15.80;31.50;;;;;;5052006;28;20475;-81
2021/04/24 12:19:56;;;;;;;6.50;5.00;;;15.90;31.60;;;;;;5047649;28;20451;-83
2021/04/24 12:22:57;;;;;;;9.57;5.90;;;15.80;32.60;;;;;;5049227;28;20451;-83
2021/04/24 12:25:35;;;;;;;7.87;5.90;;;16.50;33.10;;;;;;5052231;28;20457;-83
2021/04/24 12:28:13;;;;;;;9.00;6.50;;;16.30;33.10;;;;;;5051359;28;20443;-83
2021/04/24 12:30:48;;;;;;;7.80;5.10;;;16.20;33.20;;;;;;5057021;28;20455;-83
2021/04/24 12:33:29;;;;;;;6.70;5.20;;;16.10;33.20;;;;;;5050484;28;20598;-83
2021/04/24 12:36:05;;;;;;;5.00;4.50;;;16.30;33.50;;;;;;5043191;28;20505;-82
2021/04/24 12:38:51;;;;;;;4.97;4.40;;;16.20;33.00;;;;;;5040830;28;20474;-83
2021/04/24 12:41:25;;;;;;;6.60;4.90;;;16.60;33.60;;;;;;5039593;28;20452;-84
2021/04/24 12:47:01;;;;;;;4.83;4.43;;;16.50;33.50;;;;;;5043650;28;20452;-83
2021/04/24 12:49:46;;;;;;;5.97;3.87;;;16.70;33.60;;;;;;5041652;28;20471;-83
2021/04/24 12:52:18;;;;;;;4.73;4.20;;;16.90;33.50;;;;;;5043045;28;20523;-83
2021/04/24 12:55:09;;;;;;;4.90;3.90;;;16.70;33.30;;;;;;5050207;28;20474;-82
2021/04/24 12:57:55;;;;;;;5.50;4.50;;;16.50;32.70;;;;;;5046858;28;20466;-82
2021/04/24 13:00:43;;;;;;;5.10;4.40;;;16.50;32.80;;;;;;5049338;28;20518;-83
2021/04/24 13:03:35;;;;;;;4.50;4.10;;;16.30;32.70;;;;;;5043401;28;20452;-82
2021/04/24 13:06:21;;;;;;;8.13;4.73;;;16.60;33.40;;;;;;5047941;28;20449;-84
2021/04/24 13:12:13;;;;;;;8.90;5.90;;;17.50;33.90;;;;;;5049962;28;20449;-85
2021/04/24 13:17:56;;;;;;;7.43;4.70;;;17.40;33.40;;;;;;5049564;28;20532;-85
2021/04/24 13:20:51;;;;;;;6.37;5.00;;;17.10;33.50;;;;;;5060075;28;20467;-85
2021/04/24 13:26:53;;;;;;;5.00;4.47;;;16.90;32.50;;;;;;5056916;28;20460;-87
2021/04/24 13:29:29;;;;;;;5.53;4.90;;;17.20;33.20;;;;;;5045000;28;20514;-86
2021/04/24 13:32:13;;;;;;;7.63;5.57;;;17.40;33.40;;;;;;5055178;28;20448;-86
2021/04/24 13:41:03;;;;;;;7.57;5.03;;;17.50;33.50;;;;;;5044630;28;20448;-88
2021/04/24 13:50:11;;;;;;;5.80;4.33;;;17.60;33.80;;;;;;5049568;28;20483;-87
2021/04/24 13:52:51;;;;;;;6.40;4.70;;;18.00;33.80;;;;;;5048563;28;20448;-88
2021/04/24 13:55:42;;;;;;;7.60;5.33;;;17.70;33.70;;;;;;5043916;28;21982;-87
2021/04/24 13:58:54;;;;;;;6.27;5.20;;;17.60;34.00;;;;;;5046577;28;20486;-88
2021/04/24 14:01:58;;;;;;;8.43;5.27;;;17.00;34.50;;;;;;5050154;28;20457;-88
2021/04/24 14:04:44;;;;;;;12.13;5.17;;;17.50;34.60;;;;;;5045178;28;20458;-86
2021/04/24 14:07:27;;;;;;;8.53;4.70;;;17.30;33.60;;;;;;5043308;28;20463;-86
2021/04/24 14:13:02;;;;;;;5.77;4.60;;;17.80;33.90;;;;;;5037544;28;20449;-87
2021/04/24 14:16:00;;;;;;;7.27;5.10;;;17.70;33.40;;;;;;5044734;28;20460;-88
2021/04/24 14:31:42;;;;;;;4.80;4.30;;;17.50;32.70;;;;;;5063154;28;20458;-87
2021/04/24 14:34:52;;;;;;;5.93;4.43;;;17.60;33.00;;;;;;5049897;28;20450;-87
2021/04/24 14:49:13;;;;;;;7.30;5.23;;;17.40;34.80;;;;;;5062042;28;20447;-87
2021/04/24 14:51:50;;;;;;;8.07;5.30;;;17.50;34.80;;;;;;5066451;28;20463;-87
2021/04/24 14:54:41;;;;;;;9.63;5.63;;;17.50;34.40;;;;;;5068621;28;20490;-87
2021/04/24 15:03:24;;;;;;;6.03;5.30;;;17.70;34.50;;;;;;5056670;28;20507;-87
2021/04/24 15:06:12;;;;;;;6.53;5.87;;;17.70;34.90;;;;;;5068725;28;20476;-86
2021/04/24 15:08:58;;;;;;;8.13;6.20;;;17.90;35.00;;;;;;5060844;28;20491;-85
2021/04/24 15:11:39;;;;;;;9.90;6.80;;;17.80;34.90;;;;;;5055320;28;20786;-86
2021/04/24 15:14:20;;;;;;;10.77;6.40;;;17.90;35.10;;;;;;5058711;28;20453;-85
2021/04/24 15:17:14;;;;;;;6.97;5.77;;;17.60;34.80;;;;;;5056325;28;20482;-85
2021/04/24 15:19:56;;;;;;;12.83;6.57;;;17.30;35.10;;;;;;5056742;28;20465;-86
2021/04/24 15:22:43;;;;;;;9.23;6.13;;;17.30;35.00;;;;;;5057717;28;20507;-85
2021/04/24 15:25:18;;;;;;;6.60;5.50;;;17.30;34.90;;;;;;5058359;28;20501;-85
2021/04/24 15:27:58;;;;;;;8.73;7.00;;;17.20;34.60;;;;;;5064174;28;20487;-84
2021/04/24 15:30:35;;;;;;;7.90;6.33;;;17.20;34.40;;;;;;5056048;28;20461;-85
2021/04/24 15:33:16;;;;;;;13.50;10.97;;;17.10;34.50;;;;;;5064043;28;20452;-83
2021/04/24 15:38:55;;;;;;;7.67;6.83;;;16.90;35.00;;;;;;5049242;28;20469;-84
2021/04/24 15:41:36;;;;;;;13.10;5.67;;;17.00;35.40;;;;;;5039048;28;20517;-86
2021/04/24 15:44:25;;;;;;;11.10;6.13;;;17.00;35.50;;;;;;5041927;28;21012;-86
2021/04/24 15:53:42;;;;;;;6.33;5.30;;;17.10;35.30;;;;;;5050329;28;20498;-90
2021/04/24 16:02:39;;;;;;;8.13;5.10;;;17.20;34.80;;;;;;5039831;28;20460;-86
2021/04/24 16:05:21;;;;;;;6.67;5.37;;;17.40;35.00;;;;;;5029791;28;20459;-88
2021/04/24 16:08:10;;;;;;;6.53;4.37;;;17.20;34.80;;;;;;5036093;28;20525;-88
2021/04/24 16:13:33;;;;;;;6.73;4.97;;;17.10;34.60;;;;;;5023460;28;20449;-85
2021/04/24 16:16:34;;;;;;;9.00;4.80;;;16.90;34.00;;;;;;5037047;28;20485;-86
2021/04/24 16:19:23;;;;;;;7.67;5.27;;;17.00;34.40;;;;;;5033589;28;20453;-85
2021/04/24 16:22:09;;;;;;;7.50;5.63;;;16.90;34.50;;;;;;5041930;28;20478;-87
2021/04/24 16:24:53;;;;;;;4.73;4.07;;;17.10;34.20;;;;;;5028272;28;20464;-85
2021/04/24 16:27:35;;;;;;;4.83;4.30;;;16.90;34.00;;;;;;5037006;28;20491;-85
2021/04/24 16:33:34;;;;;;;7.20;4.87;;;17.60;34.60;;;;;;5043441;28;20470;-88
2021/04/24 16:39:14;;;;;;;5.83;5.10;;;18.80;33.40;;;;;;5038790;28;20558;-87
2021/04/24 16:44:58;;;;;;;6.90;4.37;;;17.80;32.50;;;;;;5042389;28;20629;-89
2021/04/24 16:47:35;;;;;;;5.10;4.70;;;17.60;32.60;;;;;;5041727;28;20995;-83
2021/04/24 16:50:27;;;;;;;6.57;4.20;;;17.80;32.60;;;;;;5046575;28;20439;-85
2021/04/24 16:53:05;;;;;;;5.20;4.10;;;17.60;32.10;;;;;;5052371;28;20504;-84
2021/04/24 16:58:46;;;;;;;8.67;4.70;;;17.30;33.40;;;;;;5039005;28;20464;-84
2021/04/24 17:01:25;;;;;;;5.57;4.73;;;18.40;34.20;;;;;;5044612;28;20468;-86
2021/04/24 17:04:11;;;;;;;5.53;4.50;;;19.10;33.60;;;;;;5055002;28;20468;-86
2021/04/24 17:06:52;;;;;;;6.80;4.70;;;19.80;33.20;;;;;;5046063;28;20478;-85
2021/04/24 17:10:06;;;;;;;7.50;5.70;;;19.90;33.30;;;;;;5041167;28;20458;-85
2021/04/24 17:13:01;;;;;;;6.47;5.83;;;19.50;33.80;;;;;;5036213;28;20455;-86
2021/04/24 17:15:39;;;;;;;9.23;4.40;;;19.60;33.80;;;;;;5047439;28;20534;-84
2021/04/24 17:19:00;;;;;;;8.50;5.07;;;20.80;33.30;;;;;;5046979;28;20474;-86
2021/04/24 17:21:35;;;;;;;6.87;4.90;;;20.70;33.20;;;;;;5036295;28;20530;-86
2021/04/24 17:24:44;;;;;;;6.47;4.80;;;20.50;32.80;;;;;;5048988;28;20493;-84
2021/04/24 17:27:25;;;;;;;17.33;11.70;;;20.30;32.80;;;;;;5045145;28;20479;-85
2021/04/24 17:30:05;;;;;;;14.10;8.77;;;19.50;33.00;;;;;;5042637;28;20446;-84
2021/04/24 17:32:41;;;;;;;10.10;6.57;;;19.10;33.20;;;;;;5035163;28;20455;-86
2021/04/24 17:35:18;;;;;;;6.60;5.90;;;18.90;33.50;;;;;;5044544;28;20463;-85
2021/04/24 17:38:03;;;;;;;9.87;5.00;;;17.90;33.40;;;;;;5036947;28;20508;-83
2021/04/24 17:40:41;;;;;;;7.73;5.97;;;18.50;33.60;;;;;;5050216;28;20457;-84
2021/04/24 17:46:31;;;;;;;5.20;4.27;;;18.50;33.60;;;;;;5054306;28;20522;-85
2021/04/24 17:49:09;;;;;;;8.57;5.80;;;18.40;33.70;;;;;;5037973;28;20475;-84
2021/04/24 17:51:53;;;;;;;9.10;5.20;;;18.00;34.20;;;;;;5045209;28;20463;-84
2021/04/24 17:54:40;;;;;;;9.03;5.20;;;16.90;34.20;;;;;;5043464;28;20848;-85
2021/04/24 17:57:31;;;;;;;6.50;5.10;;;16.50;35.00;;;;;;5042795;28;20451;-83
2021/04/24 18:00:11;;;;;;;7.40;5.27;;;16.00;35.00;;;;;;5035931;28;20464;-87
2021/04/24 18:02:46;;;;;;;7.47;4.67;;;15.40;35.40;;;;;;5047655;28;20456;-86
2021/04/24 18:05:21;;;;;;;6.87;5.57;;;15.00;35.70;;;;;;5039470;28;20455;-83
2021/04/24 18:07:59;;;;;;;6.87;4.70;;;14.80;36.10;;;;;;5040163;28;20446;-83